Time;durP1;ratioP1;P1;durP2;ratioP2;P2;SDS_P1;SDS_P2;PMS_P1;PMS_P2;Temp;Humidity;BMP_temperature;BMP_pressure;BME280_temperature;BME280_humidity;BME280_pressure;Samples;Min_cycle;Max_cycle;Signal;HPM_P1;HPM_P2
2022/06/29 00:04:06;;;;;;;0.10;0.10;;;;;;;13.29;100.00;101949.22;10455763;28;20473;-72
2022/06/29 00:09:07;;;;;;;0.10;0.10;;;;;;;13.22;100.00;101948.13;10456136;28;20427;-72
2022/06/29 00:14:07;;;;;;;0.10;0.10;;;;;;;13.14;100.00;101938.97;10454196;28;20037;-71
2022/06/29 00:19:07;;;;;;;0.10;0.10;;;;;;;13.12;100.00;101932.97;10455750;28;20495;-71
2022/06/29 00:24:08;;;;;;;0.10;0.10;;;;;;;13.11;100.00;101939.28;10455321;28;20048;-72
2022/06/29 00:29:08;;;;;;;0.10;0.10;;;;;;;13.02;100.00;101928.66;10455139;28;20048;-71
2022/06/29 00:34:08;;;;;;;0.10;0.10;;;;;;;12.90;100.00;101926.16;10454590;28;20020;-71
2022/06/29 00:39:09;;;;;;;0.10;0.10;;;;;;;12.73;100.00;101910.88;10443432;22;20037;-74
2022/06/29 00:44:13;;;;;;;0.10;0.10;;;;;;;12.66;100.00;101918.66;10418438;28;20030;-74
2022/06/29 00:49:19;;;;;;;0.10;0.10;;;;;;;12.63;100.00;101913.59;10423408;28;20033;-74
2022/06/29 00:54:23;;;;;;;0.08;0.08;;;;;;;12.63;100.00;101920.78;10411930;28;20017;-74
2022/06/29 00:59:24;;;;;;;;;;;;;;;12.67;100.00;101915.00;10412866;28;20033;-74
2022/06/29 01:04:24;;;;;;;0.10;0.10;;;;;;;12.68;100.00;101910.47;10442020;28;19920;-74
2022/06/29 01:09:25;;;;;;;0.08;0.08;;;;;;;12.64;100.00;101904.59;10431008;28;20032;-74
2022/06/29 01:14:26;;;;;;;0.10;0.10;;;;;;;12.57;100.00;101898.16;10427189;28;20078;-74
2022/06/29 01:19:26;;;;;;;0.10;0.10;;;;;;;12.50;100.00;101891.69;10453160;28;20028;-73
2022/06/29 01:24:26;;;;;;;0.10;0.10;;;;;;;12.50;100.00;101886.34;10444425;28;20025;-74
2022/06/29 01:29:28;;;;;;;0.10;0.10;;;;;;;12.46;100.00;101875.13;10430581;28;20028;-74
2022/06/29 01:34:31;;;;;;;0.10;0.10;;;;;;;12.39;100.00;101873.16;10422736;28;20017;-74
2022/06/29 01:39:32;;;;;;;0.10;0.10;;;;;;;12.35;100.00;101871.78;10413554;28;20025;-74
2022/06/29 01:44:33;;;;;;;0.00;0.00;;;;;;;12.36;100.00;101865.44;10426175;28;20024;-74
2022/06/29 01:49:33;;;;;;;0.10;0.10;;;;;;;12.36;100.00;101877.00;10421198;28;20029;-74
2022/06/29 01:54:34;;;;;;;0.10;0.10;;;;;;;12.40;100.00;101869.53;10425858;28;20403;-74
2022/06/29 01:59:34;;;;;;;0.10;0.10;;;;;;;12.42;100.00;101863.06;10450959;28;20569;-74
2022/06/29 02:04:35;;;;;;;0.10;0.10;;;;;;;12.42;100.00;101865.72;10415036;28;20480;-73
2022/06/29 02:09:35;;;;;;;0.10;0.10;;;;;;;12.49;100.00;101862.47;10411896;28;20025;-73
2022/06/29 02:14:36;;;;;;;0.00;0.00;;;;;;;12.50;100.00;101859.63;10445790;28;20459;-73
2022/06/29 02:19:36;;;;;;;0.10;0.10;;;;;;;12.49;100.00;101859.78;10450640;28;20310;-74
2022/06/29 02:24:36;;;;;;;0.10;0.10;;;;;;;12.52;100.00;101860.34;10449054;28;20021;-74
2022/06/29 02:29:36;;;;;;;0.00;0.00;;;;;;;12.49;100.00;101855.28;10440471;28;20479;-74
2022/06/29 02:34:46;;;;;;;0.10;0.10;;;;;;;12.46;100.00;101851.06;10449144;28;20694;-74
2022/06/29 02:39:46;;;;;;;0.00;0.00;;;;;;;12.45;100.00;101843.22;10426453;28;20345;-74
2022/06/29 02:44:47;;;;;;;0.10;0.10;;;;;;;12.42;100.00;101840.81;10428969;28;20062;-74
2022/06/29 02:49:47;;;;;;;0.10;0.10;;;;;;;12.35;100.00;101832.53;10446622;28;20487;-74
2022/06/29 02:54:47;;;;;;;0.10;0.10;;;;;;;12.27;100.00;101835.09;10438746;28;20026;-74
2022/06/29 02:59:48;;;;;;;0.10;0.10;;;;;;;12.21;100.00;101839.19;10442864;28;20352;-74
2022/06/29 03:04:48;;;;;;;0.05;0.05;;;;;;;12.16;100.00;101830.78;10437986;28;20025;-74
2022/06/29 03:09:54;;;;;;;0.10;0.10;;;;;;;12.18;100.00;101833.31;10410692;28;20033;-74
2022/06/29 03:14:55;;;;;;;0.10;0.10;;;;;;;12.33;100.00;101831.84;10422656;28;20406;-74
2022/06/29 03:19:55;;;;;;;0.10;0.10;;;;;;;13.05;100.00;101830.22;10409507;28;20167;-74
2022/06/29 03:24:55;;;;;;;0.10;0.10;;;;;;;13.87;100.00;101828.31;10413154;28;20120;-74
2022/06/29 03:29:56;;;;;;;0.10;0.10;;;;;;;14.75;100.00;101825.47;10431486;28;20020;-75
2022/06/29 03:34:57;;;;;;;0.10;0.10;;;;;;;15.72;100.00;101826.66;10445297;28;20025;-75
2022/06/29 03:39:57;;;;;;;0.10;0.10;;;;;;;16.69;100.00;101821.19;10416354;28;20083;-75
2022/06/29 03:44:57;;;;;;;0.10;0.10;;;;;;;17.54;100.00;101829.31;10415006;28;20029;-75
2022/06/29 03:49:58;;;;;;;0.00;0.00;;;;;;;18.22;100.00;101826.66;10421454;28;20021;-75
2022/06/29 03:54:58;;;;;;;0.10;0.10;;;;;;;18.41;100.00;101809.91;10449807;28;20025;-75
2022/06/29 03:59:58;;;;;;;0.10;0.10;;;;;;;18.44;100.00;101819.50;10449539;28;20021;-75
2022/06/29 04:04:59;;;;;;;0.00;0.00;;;;;;;18.44;100.00;101803.31;10413606;28;20104;-73
2022/06/29 04:09:59;;;;;;;0.00;0.00;;;;;;;18.09;100.00;101817.38;10421653;28;20492;-75
2022/06/29 04:15:01;;;;;;;0.10;0.10;;;;;;;17.71;100.00;101808.41;10413443;28;20022;-75
2022/06/29 04:20:04;;;;;;;0.10;0.10;;;;;;;17.69;100.00;101815.03;10413860;28;20018;-75
2022/06/29 04:25:05;;;;;;;0.10;0.10;;;;;;;17.53;100.00;101810.63;10438924;28;20032;-75
2022/06/29 04:30:05;;;;;;;0.00;0.00;;;;;;;17.44;100.00;101807.16;10454572;28;20028;-74
2022/06/29 04:35:06;;;;;;;0.10;0.10;;;;;;;17.46;100.00;101807.81;10424240;28;20063;-74
2022/06/29 04:40:07;;;;;;;0.00;0.00;;;;;;;17.73;100.00;101805.56;10415591;28;20155;-74
2022/06/29 04:46:19;;;;;;;0.10;0.10;;;;;;;18.11;100.00;101801.00;10411002;28;20021;-75
2022/06/29 04:50:29;;;;;;;0.10;0.10;;;;;;;18.28;100.00;101804.34;10412277;28;20025;-74
2022/06/29 04:55:29;;;;;;;0.00;0.00;;;;;;;18.42;100.00;101806.22;10411849;28;20013;-74
2022/06/29 05:00:30;;;;;;;0.10;0.10;;;;;;;18.71;100.00;101815.28;10419882;28;20472;-74
2022/06/29 05:05:30;;;;;;;0.10;0.10;;;;;;;19.04;100.00;101796.78;10450503;28;20029;-74
2022/06/29 05:10:31;;;;;;;0.00;0.00;;;;;;;19.10;100.00;101806.00;10435549;28;20024;-74
2022/06/29 05:15:31;;;;;;;0.00;0.00;;;;;;;18.95;100.00;101806.88;10448315;28;20056;-74
2022/06/29 05:20:31;;;;;;;0.00;0.00;;;;;;;19.06;100.00;101796.63;10454551;28;20032;-74
2022/06/29 05:25:32;;;;;;;0.10;0.10;;;;;;;19.45;100.00;101788.06;10453419;28;20063;-74
2022/06/29 05:30:32;;;;;;;0.10;0.10;;;;;;;19.99;100.00;101797.44;10453696;28;20036;-74
2022/06/29 05:35:33;;;;;;;0.00;0.00;;;;;;;20.50;100.00;101795.22;10450591;28;20183;-74
2022/06/29 05:40:33;;;;;;;0.00;0.00;;;;;;;21.04;96.23;101790.88;10452033;28;20059;-75
2022/06/29 05:45:34;;;;;;;0.00;0.00;;;;;;;21.87;95.94;101791.31;10452545;28;20032;-75
2022/06/29 05:50:34;;;;;;;0.00;0.00;;;;;;;22.63;89.61;101799.91;10452972;28;20035;-74
2022/06/29 05:55:34;;;;;;;0.10;0.10;;;;;;;23.39;81.88;101796.38;10452800;28;20051;-74
2022/06/29 06:00:35;;;;;;;0.08;0.08;;;;;;;23.93;77.75;101800.31;10452847;28;20036;-75
2022/06/29 06:05:35;;;;;;;0.10;0.10;;;;;;;24.44;76.85;101795.63;10446897;28;20380;-74
2022/06/29 06:10:36;;;;;;;0.10;0.10;;;;;;;24.39;75.52;101802.53;10452755;28;20388;-75
2022/06/29 06:15:38;;;;;;;0.10;0.10;;;;;;;24.26;75.11;101791.81;10451708;28;20726;-74
2022/06/29 06:20:38;;;;;;;0.00;0.00;;;;;;;24.02;73.01;101789.97;10452619;28;20243;-75
2022/06/29 06:25:38;;;;;;;0.10;0.10;;;;;;;24.77;71.49;101785.13;10450267;28;20634;-75
2022/06/29 06:30:38;;;;;;;0.10;0.10;;;;;;;25.72;62.41;101780.75;10452263;28;20438;-75
2022/06/29 06:35:39;;;;;;;0.10;0.10;;;;;;;26.37;62.48;101779.72;10446919;28;20506;-75
2022/06/29 06:45:59;;;;;;;0.00;0.00;;;;;;;25.66;61.37;101781.69;10450961;28;20480;-72
2022/06/29 06:50:59;;;;;;;0.10;0.10;;;;;;;26.10;62.96;101771.25;10451041;28;20021;-72
2022/06/29 06:56:00;;;;;;;0.10;0.10;;;;;;;26.68;60.14;101769.47;10450307;28;20044;-72
2022/06/29 07:01:00;;;;;;;0.10;0.10;;;;;;;26.75;56.60;101775.59;10450039;28;20032;-70
2022/06/29 07:06:01;;;;;;;0.10;0.10;;;;;;;26.96;58.99;101763.94;10449557;28;20471;-72
2022/06/29 07:11:02;;;;;;;0.10;0.10;;;;;;;25.93;60.37;101754.78;10450878;28;20047;-71
2022/06/29 07:16:05;;;;;;;0.00;0.00;;;;;;;25.17;64.06;101760.03;10450003;28;20091;-71
2022/06/29 07:21:05;;;;;;;0.10;0.10;;;;;;;25.45;64.37;101753.94;10450357;28;20037;-72
2022/06/29 07:26:05;;;;;;;0.00;0.00;;;;;;;25.17;65.52;101751.88;10450773;28;20025;-72
2022/06/29 07:31:07;;;;;;;0.10;0.10;;;;;;;24.85;66.45;101754.00;10450277;28;20383;-72
2022/06/29 07:36:07;;;;;;;0.10;0.10;;;;;;;25.52;66.17;101741.00;10449394;28;20071;-72
2022/06/29 07:41:08;;;;;;;0.10;0.10;;;;;;;26.11;67.08;101743.69;10449742;28;20055;-72
2022/06/29 07:46:08;;;;;;;0.10;0.10;;;;;;;26.14;63.52;101740.47;10449570;28;20021;-72
2022/06/29 07:51:09;;;;;;;0.10;0.10;;;;;;;26.13;65.44;101738.81;10450003;28;20055;-72
2022/06/29 07:56:09;;;;;;;0.10;0.10;;;;;;;25.91;62.38;101729.59;10449398;28;20460;-72
2022/06/29 08:01:09;;;;;;;0.03;0.03;;;;;;;25.96;63.46;101732.44;10450204;28;20102;-72
2022/06/29 08:06:10;;;;;;;0.00;0.00;;;;;;;26.19;62.96;101737.03;10444134;28;20036;-72
2022/06/29 08:11:10;;;;;;;0.10;0.10;;;;;;;27.03;60.41;101737.28;10452601;28;20029;-73
2022/06/29 08:16:11;;;;;;;0.10;0.10;;;;;;;26.77;63.08;101738.75;10456386;28;20028;-73
2022/06/29 08:21:11;;;;;;;0.00;0.00;;;;;;;25.89;63.72;101742.66;10457144;28;20025;-73
2022/06/29 08:26:11;;;;;;;0.08;0.08;;;;;;;25.99;65.99;101729.25;10455751;28;20025;-72
2022/06/29 08:31:12;;;;;;;0.05;0.05;;;;;;;26.57;63.01;101733.72;10456311;28;20028;-73
2022/06/29 08:36:12;;;;;;;0.10;0.10;;;;;;;26.79;62.76;101736.59;10451681;28;20074;-72
2022/06/29 08:41:14;;;;;;;0.10;0.10;;;;;;;26.65;61.82;101735.25;10454894;28;20427;-72
2022/06/29 08:46:14;;;;;;;0.10;0.10;;;;;;;26.42;65.14;101730.69;10454110;28;20395;-72
2022/06/29 08:51:18;;;;;;;0.10;0.10;;;;;;;26.70;62.79;101731.75;10457201;28;20025;-73
2022/06/29 08:56:19;;;;;;;0.10;0.10;;;;;;;26.77;62.78;101729.72;10455546;28;20021;-72
2022/06/29 09:01:20;;;;;;;0.10;0.10;;;;;;;26.97;64.38;101742.94;10457101;28;20424;-72
2022/06/29 09:06:23;;;;;;;0.07;0.07;;;;;;;26.85;64.65;101732.06;10463512;28;20063;-72
2022/06/29 09:11:28;;;;;;;0.00;0.00;;;;;;;26.83;62.27;101735.03;10454427;28;20021;-72
2022/06/29 09:16:28;;;;;;;0.00;0.00;;;;;;;26.81;65.07;101728.97;10453486;28;20024;-72
2022/06/29 09:21:28;;;;;;;0.10;0.10;;;;;;;26.84;65.23;101727.66;10453920;28;20139;-72
2022/06/29 09:26:29;;;;;;;0.10;0.10;;;;;;;27.01;65.45;101727.69;10453927;28;20028;-73
2022/06/29 09:31:29;;;;;;;0.00;0.00;;;;;;;27.63;71.17;101713.06;10452998;28;20017;-73
2022/06/29 09:36:30;;;;;;;0.00;0.00;;;;;;;27.72;62.28;101715.16;10448509;28;20475;-73
2022/06/29 09:41:30;;;;;;;0.00;0.00;;;;;;;27.79;62.13;101705.97;10453795;28;20033;-73
2022/06/29 09:46:31;;;;;;;0.10;0.10;;;;;;;27.53;60.51;101694.63;10452884;28;20021;-73
2022/06/29 09:51:32;;;;;;;0.00;0.00;;;;;;;27.30;63.05;101701.09;10453340;28;20025;-72
2022/06/29 09:56:34;;;;;;;0.10;0.10;;;;;;;27.57;64.44;101693.03;10451186;28;20425;-73
2022/06/29 10:06:54;;;;;;;0.00;0.00;;;;;;;27.85;62.67;101685.78;10472420;28;20036;-73
2022/06/29 10:17:40;;;;;;;0.00;0.00;;;;;;;28.29;62.41;101672.06;10492843;28;20251;-72
2022/06/29 10:22:40;;;;;;;0.00;0.00;;;;;;;28.18;58.20;101676.59;10493655;28;20066;-73
2022/06/29 10:28:16;;;;;;;0.00;0.00;;;;;;;28.04;58.13;101669.84;10492532;28;20058;-73
2022/06/29 10:33:29;;;;;;;0.05;0.05;;;;;;;27.89;59.44;101665.84;10474434;28;20479;-72
2022/06/29 10:38:31;;;;;;;0.00;0.00;;;;;;;28.17;58.26;101662.06;10450693;28;20530;-73
2022/06/29 10:43:32;;;;;;;0.00;0.00;;;;;;;28.43;58.76;101657.72;10451100;28;20025;-73
2022/06/29 10:48:32;;;;;;;0.00;0.00;;;;;;;28.26;53.23;101672.56;10450650;28;20025;-73
2022/06/29 10:53:32;;;;;;;0.10;0.10;;;;;;;28.29;57.36;101650.13;10450767;28;20025;-73
2022/06/29 10:58:34;;;;;;;0.10;0.10;;;;;;;28.86;56.92;101642.22;10450657;28;20029;-73
2022/06/29 11:03:37;;;;;;;0.00;0.00;;;;;;;29.16;49.10;101651.78;10445769;28;20437;-73
2022/06/29 11:13:58;;;;;;;0.10;0.10;;;;;;;29.03;49.00;101633.88;10449956;28;20021;-73
2022/06/29 11:18:58;;;;;;;0.10;0.10;;;;;;;28.41;49.71;101648.06;10450853;28;20472;-73
2022/06/29 11:24:03;;;;;;;0.10;0.10;;;;;;;28.04;52.66;101628.78;10449731;28;20287;-72
2022/06/29 11:29:03;;;;;;;0.10;0.10;;;;;;;27.73;53.26;101625.66;10449378;28;20048;-72
2022/06/29 11:34:04;;;;;;;0.10;0.10;;;;;;;27.22;53.36;101624.94;10444881;28;20087;-72
2022/06/29 11:39:06;;;;;;;0.00;0.00;;;;;;;26.94;54.39;101613.03;10449909;28;20271;-72
2022/06/29 11:44:06;;;;;;;;;;;;;;;26.73;53.76;101619.22;10449701;28;20035;-72
2022/06/29 11:54:43;;;;;;;0.10;0.10;;;;;;;27.05;52.82;101608.53;10457757;28;20104;-73
2022/06/29 11:59:45;;;;;;;0.10;0.10;;;;;;;27.73;52.36;101609.22;10457507;28;20024;-73
2022/06/29 12:04:46;;;;;;;0.00;0.00;;;;;;;28.36;49.76;101596.81;10451706;28;20021;-73
2022/06/29 12:09:46;;;;;;;0.00;0.00;;;;;;;28.97;51.45;101582.75;10456146;28;20017;-73
2022/06/29 12:14:47;;;;;;;0.10;0.10;;;;;;;29.24;46.95;101579.13;10456693;28;20021;-73
2022/06/29 12:19:47;;;;;;;0.10;0.10;;;;;;;29.17;49.38;101570.31;10456713;28;20479;-73
2022/06/29 12:24:47;;;;;;;0.10;0.10;;;;;;;28.72;45.61;101577.13;10455573;28;20025;-72
2022/06/29 12:29:48;;;;;;;0.00;0.00;;;;;;;28.39;50.32;101571.63;10456800;28;20279;-72
2022/06/29 12:34:48;;;;;;;0.10;0.10;;;;;;;28.30;48.63;101577.81;10450947;28;20070;-73
2022/06/29 12:39:49;;;;;;;0.10;0.10;;;;;;;27.83;49.45;101564.75;10470732;22;20045;-74
2022/06/29 12:44:49;;;;;;;0.10;0.10;;;;;;;27.68;47.82;101570.84;10455015;28;20483;-72
2022/06/29 12:49:49;;;;;;;0.10;0.10;;;;;;;27.15;50.05;101575.06;10454568;28;20496;-72
2022/06/29 12:54:50;;;;;;;0.10;0.10;;;;;;;26.98;54.09;101567.69;10455911;28;20017;-72
2022/06/29 12:59:51;;;;;;;0.10;0.10;;;;;;;26.92;50.69;101557.78;10455035;28;20025;-72
2022/06/29 13:04:51;;;;;;;0.00;0.00;;;;;;;27.29;49.53;101549.03;10477401;28;20025;-73
2022/06/29 13:09:56;;;;;;;0.10;0.10;;;;;;;28.12;47.76;101540.69;10496921;28;20471;-72
2022/06/29 13:14:56;;;;;;;0.00;0.00;;;;;;;28.28;45.85;101542.47;10493371;28;20066;-73
2022/06/29 13:19:57;;;;;;;0.10;0.10;;;;;;;28.15;45.91;101540.16;10495722;28;20482;-73
2022/06/29 13:24:57;;;;;;;0.00;0.00;;;;;;;27.93;46.59;101543.78;10496152;28;20027;-73
2022/06/29 13:29:58;;;;;;;0.00;0.00;;;;;;;27.89;45.86;101530.88;10495844;28;20383;-73
2022/06/29 13:34:59;;;;;;;0.00;0.00;;;;;;;28.23;46.98;101526.00;10495743;28;20025;-73
2022/06/29 13:39:59;;;;;;;0.00;0.00;;;;;;;28.26;49.69;101519.19;10495474;28;20036;-73
2022/06/29 13:44:59;;;;;;;0.08;0.08;;;;;;;28.01;45.55;101514.28;10495265;28;20032;-73
2022/06/29 13:50:00;;;;;;;0.00;0.00;;;;;;;27.94;46.64;101517.25;10495009;28;20024;-73
2022/06/29 13:55:00;;;;;;;0.00;0.00;;;;;;;28.20;47.18;101505.44;10494682;28;20024;-73
2022/06/29 14:00:01;;;;;;;0.00;0.00;;;;;;;27.97;44.20;101509.31;10465948;28;20021;-73
2022/06/29 14:05:01;;;;;;;0.00;0.00;;;;;;;27.85;44.08;101500.44;10453238;28;20491;-73
2022/06/29 14:10:02;;;;;;;0.00;0.00;;;;;;;27.76;44.76;101499.25;10452761;28;20031;-72
2022/06/29 14:15:03;;;;;;;0.00;0.00;;;;;;;27.70;44.82;101501.09;10452900;28;20021;-73
2022/06/29 14:20:04;;;;;;;0.00;0.00;;;;;;;27.88;47.82;101491.72;10452601;28;20044;-71
2022/06/29 14:25:07;;;;;;;0.10;0.10;;;;;;;27.86;46.50;101495.78;10452338;28;20086;-72
2022/06/29 14:30:08;;;;;;;0.10;0.10;;;;;;;27.92;45.15;101483.81;10452308;28;20029;-73
2022/06/29 14:35:09;;;;;;;0.00;0.00;;;;;;;28.01;49.55;101478.69;10453344;28;20021;-73
2022/06/29 14:40:09;;;;;;;0.00;0.00;;;;;;;27.97;45.16;101472.91;10450758;28;20028;-73
2022/06/29 14:45:10;;;;;;;0.10;0.10;;;;;;;28.11;47.37;101467.84;10451862;28;20078;-72
2022/06/29 14:50:11;;;;;;;0.10;0.10;;;;;;;28.02;43.29;101466.66;10451738;28;20467;-73
2022/06/29 14:55:11;;;;;;;0.00;0.00;;;;;;;27.97;45.12;101464.69;10450319;28;20021;-73
2022/06/29 15:00:12;;;;;;;0.10;0.10;;;;;;;27.88;44.54;101452.56;10451469;28;20025;-73
2022/06/29 15:05:12;;;;;;;0.00;0.00;;;;;;;27.80;45.93;101455.78;10451264;28;20041;-72
2022/06/29 15:10:13;;;;;;;0.00;0.00;;;;;;;28.03;49.63;101438.19;10451157;28;20463;-71
2022/06/29 15:15:13;;;;;;;0.10;0.10;;;;;;;28.23;48.55;101443.81;10451251;28;20388;-71
2022/06/29 15:20:13;;;;;;;0.10;0.10;;;;;;;28.40;44.95;101439.03;10452499;28;20027;-71
2022/06/29 15:25:14;;;;;;;0.00;0.00;;;;;;;28.15;44.57;101436.09;10459503;28;20033;-70
2022/06/29 15:30:15;;;;;;;0.03;0.03;;;;;;;27.77;45.89;101437.94;10459492;28;20098;-72
2022/06/29 15:40:34;;;;;;;0.00;0.00;;;;;;;26.96;47.97;101427.69;10459246;28;20115;-72
2022/06/29 15:45:35;;;;;;;0.10;0.10;;;;;;;26.92;53.45;101412.91;10458539;28;20115;-73
2022/06/29 15:50:35;;;;;;;0.10;0.10;;;;;;;27.05;51.93;101415.25;10458514;28;20436;-73
2022/06/29 15:55:35;;;;;;;0.10;0.10;;;;;;;27.10;47.46;101417.22;10458282;28;20056;-73
2022/06/29 16:00:35;;;;;;;0.10;0.10;;;;;;;26.97;48.06;101412.16;10457959;28;20539;-75
2022/06/29 16:05:36;;;;;;;0.10;0.10;;;;;;;27.01;49.20;101411.38;10457995;28;20025;-72
2022/06/29 16:10:36;;;;;;;0.00;0.00;;;;;;;27.06;47.79;101407.88;10457637;28;20021;-73
2022/06/29 16:15:36;;;;;;;0.00;0.00;;;;;;;26.99;47.67;101402.59;10457430;28;20056;-71
2022/06/29 16:20:37;;;;;;;0.00;0.00;;;;;;;26.92;48.53;101399.22;10457323;28;20032;-70
2022/06/29 16:25:37;;;;;;;0.00;0.00;;;;;;;26.96;47.86;101394.06;10457136;28;20108;-70
2022/06/29 16:30:37;;;;;;;0.00;0.00;;;;;;;26.94;46.47;101404.47;10456824;28;20436;-70
2022/06/29 16:35:38;;;;;;;0.00;0.00;;;;;;;26.90;46.98;101389.63;10456878;28;20028;-72
2022/06/29 16:40:38;;;;;;;0.10;0.10;;;;;;;26.92;48.15;101395.69;10456385;28;20094;-70
2022/06/29 16:45:39;;;;;;;0.00;0.00;;;;;;;26.76;45.29;101384.56;10456642;28;20111;-72
2022/06/29 16:50:39;;;;;;;0.10;0.10;;;;;;;26.51;49.17;101389.69;10456052;28;20115;-71
2022/06/29 16:55:41;;;;;;;0.03;0.03;;;;;;;26.41;49.33;101382.13;10456095;28;20021;-72
2022/06/29 17:00:41;;;;;;;0.00;0.00;;;;;;;26.48;51.08;101380.06;10455654;28;20346;-72
2022/06/29 17:05:41;;;;;;;0.10;0.10;;;;;;;26.48;50.27;101377.31;10456635;28;20472;-72
2022/06/29 17:10:42;;;;;;;0.10;0.10;;;;;;;26.40;46.57;101377.75;10456039;28;20438;-72
2022/06/29 17:15:42;;;;;;;0.00;0.00;;;;;;;26.30;45.05;101372.16;10455095;28;20053;-72
2022/06/29 17:20:43;;;;;;;0.10;0.10;;;;;;;26.22;45.65;101369.84;10454921;28;20124;-73
2022/06/29 17:25:43;;;;;;;0.00;0.00;;;;;;;26.12;47.05;101370.50;10454766;28;20025;-71
2022/06/29 17:30:43;;;;;;;0.00;0.00;;;;;;;26.03;48.43;101372.00;10454501;28;20399;-70
2022/06/29 17:35:44;;;;;;;0.00;0.00;;;;;;;25.90;49.45;101374.00;10453957;28;20052;-70
2022/06/29 17:40:44;;;;;;;0.00;0.00;;;;;;;25.75;52.20;101377.25;10452668;28;20490;-71
2022/06/29 17:45:44;;;;;;;0.10;0.10;;;;;;;25.40;62.00;101371.19;10453195;28;20060;-70
2022/06/29 17:50:44;;;;;;;0.00;0.00;;;;;;;24.73;68.33;101375.28;10453825;28;20082;-70
2022/06/29 17:55:45;;;;;;;0.10;0.10;;;;;;;24.27;73.38;101371.53;10453520;28;20070;-70
2022/06/29 18:00:46;;;;;;;0.00;0.00;;;;;;;23.91;73.61;101373.41;10453821;28;20108;-73
2022/06/29 18:05:46;;;;;;;0.00;0.00;;;;;;;23.63;75.97;101375.91;10453162;28;20116;-72
2022/06/29 18:10:46;;;;;;;0.00;0.00;;;;;;;23.40;75.23;101382.94;10451734;28;20110;-72
2022/06/29 18:15:47;;;;;;;0.10;0.10;;;;;;;23.08;78.17;101379.59;10453006;28;20108;-72
2022/06/29 18:20:47;;;;;;;0.00;0.00;;;;;;;22.89;75.91;101380.63;10452573;28;20029;-72
2022/06/29 18:25:47;;;;;;;0.10;0.10;;;;;;;22.74;80.40;101379.13;10452395;28;20482;-72
2022/06/29 18:30:49;;;;;;;0.00;0.00;;;;;;;22.55;80.84;101385.63;10452376;28;20017;-72
2022/06/29 18:35:49;;;;;;;0.00;0.00;;;;;;;22.35;81.13;101380.41;10452198;28;20027;-71
2022/06/29 18:40:50;;;;;;;0.10;0.10;;;;;;;22.13;82.29;101372.63;10409477;22;20527;-71
2022/06/29 18:45:50;;;;;;;0.10;0.10;;;;;;;21.83;83.63;101377.06;10368782;28;20040;-71
2022/06/29 18:50:51;;;;;;;0.00;0.00;;;;;;;21.56;84.70;101388.09;10369262;28;20026;-71
2022/06/29 18:55:53;;;;;;;0.10;0.10;;;;;;;21.37;85.99;101392.56;10367418;28;20392;-71
2022/06/29 19:00:53;;;;;;;0.00;0.00;;;;;;;21.19;86.46;101400.56;10368240;28;20034;-71
2022/06/29 19:05:54;;;;;;;0.00;0.00;;;;;;;21.02;86.94;101398.34;10367507;28;20021;-71
2022/06/29 19:10:54;;;;;;;0.00;0.00;;;;;;;20.88;87.64;101398.59;10368594;28;20034;-71
2022/06/29 19:15:55;;;;;;;0.00;0.00;;;;;;;20.69;89.52;101395.75;10368029;28;20397;-70
2022/06/29 19:20:55;;;;;;;0.00;0.00;;;;;;;20.49;89.36;101405.75;10368854;28;20088;-70
2022/06/29 19:25:56;;;;;;;0.10;0.10;;;;;;;20.34;89.10;101414.94;10367840;28;20033;-71
2022/06/29 19:30:56;;;;;;;0.10;0.10;;;;;;;20.19;90.27;101414.31;10373079;28;20111;-71
2022/06/29 19:35:56;;;;;;;0.10;0.10;;;;;;;19.98;91.79;101428.03;10367962;28;20379;-70
2022/06/29 19:40:57;;;;;;;0.10;0.10;;;;;;;19.74;92.12;101427.59;10368853;28;20037;-71
2022/06/29 19:45:57;;;;;;;0.00;0.00;;;;;;;19.69;91.06;101430.06;10368347;28;20385;-70
2022/06/29 19:50:57;;;;;;;0.10;0.10;;;;;;;19.59;90.59;101446.63;10368961;28;20038;-70
2022/06/29 19:55:57;;;;;;;0.98;0.43;;;;;;;19.51;89.45;101446.00;10368221;28;20440;-70
2022/06/29 20:00:58;;;;;;;0.10;0.10;;;;;;;19.49;87.16;101461.56;10371782;28;20401;-70
2022/06/29 20:05:58;;;;;;;0.00;0.00;;;;;;;19.39;87.46;101459.25;10368092;28;20026;-70
2022/06/29 20:10:59;;;;;;;0.00;0.00;;;;;;;19.30;87.08;101449.66;10374876;28;20022;-70
2022/06/29 20:15:59;;;;;;;0.10;0.10;;;;;;;19.12;88.41;101451.03;10374502;28;20018;-70
2022/06/29 20:20:59;;;;;;;0.00;0.00;;;;;;;18.91;89.16;101451.16;10374764;28;20283;-71
2022/06/29 20:26:00;;;;;;;0.00;0.00;;;;;;;18.86;88.12;101446.34;10373933;28;20434;-70
2022/06/29 20:31:02;;;;;;;0.00;0.00;;;;;;;18.76;88.92;101456.63;10381283;28;20029;-70
2022/06/29 20:36:03;;;;;;;0.00;0.00;;;;;;;18.63;89.65;101456.53;10414301;28;20434;-70
2022/06/29 20:41:03;;;;;;;0.10;0.10;;;;;;;18.65;88.69;101454.47;10415163;28;20033;-70
2022/06/29 20:46:04;;;;;;;0.10;0.10;;;;;;;18.71;87.02;101459.91;10414522;28;20108;-70
2022/06/29 20:51:04;;;;;;;0.00;0.00;;;;;;;18.89;84.13;101450.50;10414601;28;20472;-70
2022/06/29 20:56:07;;;;;;;0.10;0.10;;;;;;;19.02;83.04;101460.53;10412742;28;20049;-70
2022/06/29 21:01:07;;;;;;;0.07;0.07;;;;;;;19.02;83.48;101466.75;10390880;28;20116;-72
2022/06/29 21:06:11;;;;;;;0.00;0.00;;;;;;;18.92;83.43;101482.50;10411994;28;20112;-71
2022/06/29 21:11:11;;;;;;;0.00;0.00;;;;;;;18.83;84.67;101484.50;10412961;28;20028;-71
2022/06/29 21:16:12;;;;;;;0.10;0.10;;;;;;;18.71;85.42;101477.97;10412835;28;20021;-71
2022/06/29 21:21:15;;;;;;;0.10;0.10;;;;;;;18.53;87.05;101476.59;10412402;28;20076;-71
2022/06/29 21:26:15;;;;;;;0.10;0.10;;;;;;;18.35;88.88;101475.41;10412585;28;20029;-71
2022/06/29 21:31:15;;;;;;;0.00;0.00;;;;;;;18.19;89.16;101481.91;10411423;28;20124;-71
2022/06/29 21:36:16;;;;;;;0.10;0.10;;;;;;;18.12;89.02;101478.28;10370140;28;20057;-71
2022/06/29 21:41:17;;;;;;;0.10;0.10;;;;;;;18.00;90.71;101488.75;10371643;28;20063;-71
2022/06/29 21:46:17;;;;;;;0.10;0.10;;;;;;;17.88;91.44;101480.34;10370938;28;20117;-71
2022/06/29 21:51:18;;;;;;;0.10;0.10;;;;;;;17.70;93.43;101479.91;10371136;28;20026;-71
2022/06/29 21:56:18;;;;;;;0.10;0.10;;;;;;;17.47;95.61;101477.38;10370677;28;20022;-71
2022/06/29 22:01:19;;;;;;;0.10;0.10;;;;;;;17.27;97.57;101477.94;10376894;28;20545;-71
2022/06/29 22:06:19;;;;;;;0.00;0.00;;;;;;;17.14;98.35;101484.00;10370294;28;20030;-71
2022/06/29 22:11:19;;;;;;;0.10;0.10;;;;;;;17.07;98.34;101480.38;10370493;28;20018;-71
2022/06/29 22:16:20;;;;;;;0.10;0.10;;;;;;;17.04;98.15;101482.59;10368484;28;20104;-70
2022/06/29 22:21:20;;;;;;;0.10;0.10;;;;;;;17.00;97.83;101478.63;10368847;28;20392;-71
2022/06/29 22:26:20;;;;;;;0.10;0.10;;;;;;;16.93;98.52;101475.84;10369480;28;20026;-71
2022/06/29 22:31:21;;;;;;;0.10;0.10;;;;;;;16.86;98.71;101470.34;10383928;28;20097;-71
2022/06/29 22:36:21;;;;;;;0.00;0.00;;;;;;;16.80;99.97;101478.34;10369588;28;20026;-70
2022/06/29 22:41:21;;;;;;;0.10;0.10;;;;;;;16.70;100.00;101467.81;10369443;28;20025;-70
2022/06/29 22:46:22;;;;;;;0.10;0.10;;;;;;;16.57;100.00;101475.66;10368902;28;20497;-70
2022/06/29 22:51:22;;;;;;;0.10;0.10;;;;;;;16.43;100.00;101458.47;10369287;28;20037;-71
2022/06/29 22:56:22;;;;;;;0.10;0.10;;;;;;;16.34;100.00;101464.94;10368708;28;20060;-71
2022/06/29 23:01:23;;;;;;;0.10;0.10;;;;;;;16.19;100.00;101463.06;10375892;28;20032;-70
2022/06/29 23:06:24;;;;;;;0.10;0.10;;;;;;;16.09;100.00;101462.47;10368457;28;20026;-71
2022/06/29 23:16:43;;;;;;;0.10;0.10;;;;;;;15.81;100.00;101459.47;10368284;28;20029;-70
2022/06/29 23:21:43;;;;;;;0.10;0.10;;;;;;;15.56;100.00;101469.50;10368661;28;20476;-70
2022/06/29 23:26:43;;;;;;;0.10;0.10;;;;;;;15.30;100.00;101459.06;10368285;28;20026;-70
2022/06/29 23:31:44;;;;;;;0.10;0.10;;;;;;;15.12;100.00;101480.75;10376630;28;20037;-70
2022/06/29 23:36:44;;;;;;;0.10;0.10;;;;;;;15.03;100.00;101471.06;10366727;28;20077;-70